createdAt,value
2019-04-26T00:02:26.204Z,14.60
2019-04-26T00:04:56.195Z,14.60
2019-04-26T00:07:24.673Z,14.50
2019-04-26T00:09:54.300Z,14.50
2019-04-26T00:12:24.335Z,14.40
2019-04-26T00:14:57.604Z,14.40
2019-04-26T00:17:39.867Z,14.30
2019-04-26T00:20:08.837Z,14.30
2019-04-26T00:22:37.418Z,14.20
2019-04-26T00:25:06.615Z,14.10
2019-04-26T00:27:35.060Z,14.00
2019-04-26T00:30:04.119Z,14.00
2019-04-26T00:32:32.563Z,13.90
2019-04-26T00:35:01.010Z,13.90
2019-04-26T00:37:29.464Z,13.90
2019-04-26T00:39:57.908Z,13.80
2019-04-26T00:42:26.506Z,13.80
2019-04-26T00:44:55.213Z,13.80
2019-04-26T00:47:25.910Z,13.70
2019-04-26T00:49:54.871Z,13.70
2019-04-26T00:52:24.959Z,13.60
2019-04-26T00:54:53.881Z,13.60
2019-04-26T00:57:24.351Z,13.50
2019-04-26T00:59:53.199Z,13.40
2019-04-26T01:02:35.389Z,13.30
2019-04-26T01:05:04.059Z,13.20
2019-04-26T01:07:32.518Z,13.10
2019-04-26T01:10:00.912Z,13.10
2019-04-26T01:12:29.326Z,13.10
2019-04-26T01:14:57.727Z,13.10
2019-04-26T01:17:26.825Z,13.00
2019-04-26T01:19:56.066Z,13.00
2019-04-26T01:22:27.684Z,13.00
2019-04-26T01:24:56.726Z,12.90
2019-04-26T01:27:27.750Z,12.90
2019-04-26T01:29:59.335Z,12.80
2019-04-26T01:32:28.978Z,12.80
2019-04-26T01:37:46.088Z,12.70
2019-04-26T01:40:16.264Z,12.70
2019-04-26T01:42:52.599Z,12.60
2019-04-26T01:45:36.615Z,12.60
2019-04-26T01:48:09.725Z,12.60
2019-04-26T01:50:38.276Z,12.70
2019-04-26T01:53:07.320Z,12.60
2019-04-26T01:55:35.870Z,12.40
2019-04-26T01:58:06.312Z,12.30
2019-04-26T02:00:48.187Z,12.40
2019-04-26T02:03:24.250Z,12.50
2019-04-26T02:05:53.919Z,12.50
2019-04-26T02:08:23.445Z,12.50
2019-04-26T02:10:52.511Z,12.60
2019-04-26T02:13:22.524Z,12.60
2019-04-26T02:15:52.192Z,12.60
2019-04-26T02:18:20.719Z,12.80
2019-04-26T02:20:59.080Z,13.00
2019-04-26T02:23:32.122Z,13.10
2019-04-26T02:26:18.506Z,13.30
2019-04-26T02:28:47.599Z,13.40
2019-04-26T02:31:16.288Z,13.20
2019-04-26T02:33:44.822Z,13.10
2019-04-26T02:36:13.613Z,13.10
2019-04-26T02:38:42.400Z,13.10
2019-04-26T02:41:11.014Z,13.10
2019-04-26T02:43:42.251Z,13.10
2019-04-26T02:46:14.039Z,13.10
2019-04-26T02:48:47.205Z,13.00
2019-04-26T02:51:18.809Z,12.90
2019-04-26T02:53:55.840Z,12.80
2019-04-26T02:56:41.419Z,12.80
2019-04-26T02:59:12.946Z,12.80
2019-04-26T03:01:41.802Z,12.70
2019-04-26T03:04:10.389Z,12.70
2019-04-26T03:06:42.873Z,12.60
2019-04-26T03:09:13.781Z,12.60
2019-04-26T03:11:45.421Z,12.50
2019-04-26T03:14:18.699Z,12.40
2019-04-26T03:16:57.773Z,12.30
2019-04-26T03:20:00.851Z,12.30
2019-04-26T03:22:42.530Z,12.30
2019-04-26T03:25:14.244Z,12.20
2019-04-26T03:27:48.488Z,12.20
2019-04-26T03:30:23.803Z,12.00
2019-04-26T03:33:07.393Z,11.90
2019-04-26T03:35:56.484Z,11.80
2019-04-26T03:38:49.783Z,11.70
2019-04-26T03:41:41.092Z,11.60
2019-04-26T03:44:25.280Z,11.60
2019-04-26T03:46:56.032Z,11.60
2019-04-26T03:49:30.556Z,11.50
2019-04-26T03:52:20.396Z,11.40
2019-04-26T03:54:54.777Z,11.40
2019-04-26T03:57:46.119Z,11.20
2019-04-26T04:00:37.211Z,11.20
2019-04-26T04:03:13.542Z,11.00
2019-04-26T04:05:49.404Z,11.00
2019-04-26T04:08:20.709Z,10.90
2019-04-26T04:10:57.897Z,10.80
2019-04-26T04:13:43.180Z,10.70
2019-04-26T04:16:31.628Z,10.60
2019-04-26T04:19:09.037Z,10.50
2019-04-26T04:21:56.686Z,10.40
2019-04-26T04:24:28.174Z,10.40
2019-04-26T04:27:02.515Z,10.30
2019-04-26T04:29:53.480Z,10.20
2019-04-26T04:32:30.757Z,10.20
2019-04-26T04:35:06.342Z,10.10
2019-04-26T04:37:35.441Z,10.10
2019-04-26T04:40:25.960Z,10.00
2019-04-26T04:43:19.921Z,10.00
2019-04-26T04:46:10.816Z,10.00
2019-04-26T04:49:20.910Z,9.90
2019-04-26T04:52:08.909Z,9.90
2019-04-26T04:54:41.518Z,9.90
2019-04-26T04:57:37.201Z,9.70
2019-04-26T05:00:40.202Z,9.70
2019-04-26T05:03:30.976Z,9.80
2019-04-26T05:06:12.499Z,9.80
2019-04-26T05:08:55.625Z,9.80
2019-04-26T05:11:29.579Z,9.70
2019-04-26T05:14:06.996Z,9.70
2019-04-26T05:16:45.433Z,9.70
2019-04-26T05:19:46.749Z,9.70
2019-04-26T05:22:30.004Z,9.70
2019-04-26T05:25:13.923Z,9.60
2019-04-26T05:28:06.412Z,9.60
2019-04-26T05:31:04.095Z,9.70
2019-04-26T05:33:39.188Z,9.70
2019-04-26T05:36:19.733Z,9.80
2019-04-26T05:39:08.451Z,9.80
2019-04-26T05:42:16.028Z,9.80
2019-04-26T05:45:12.699Z,9.80
2019-04-26T05:48:05.184Z,9.80
2019-04-26T05:50:40.735Z,9.90
2019-04-26T05:53:48.679Z,10.00
2019-04-26T05:56:28.116Z,10.10
2019-04-26T05:59:17.719Z,10.00
2019-04-26T06:02:15.627Z,9.90
2019-04-26T06:05:12.868Z,10.00
2019-04-26T06:08:03.019Z,10.00
2019-04-26T06:10:38.809Z,10.00
2019-04-26T06:13:20.459Z,10.00
2019-04-26T06:16:05.311Z,10.00
2019-04-26T06:18:59.727Z,10.00
2019-04-26T06:21:43.067Z,10.10
2019-04-26T06:24:20.107Z,10.30
2019-04-26T06:27:13.148Z,10.40
2019-04-26T06:29:56.586Z,10.50
2019-04-26T06:32:36.898Z,10.60
2019-04-26T06:35:23.967Z,10.50
2019-04-26T06:38:03.932Z,10.50
2019-04-26T06:40:54.537Z,10.40
2019-04-26T06:43:26.689Z,10.60
2019-04-26T06:46:08.691Z,10.60
2019-04-26T06:49:03.413Z,10.60
2019-04-26T06:51:46.647Z,10.70
2019-04-26T06:54:23.752Z,10.70
2019-04-26T06:57:29.508Z,10.80
2019-04-26T07:00:16.780Z,10.90
2019-04-26T07:03:05.940Z,11.00
2019-04-26T07:05:37.423Z,11.10
2019-04-26T07:08:25.384Z,11.20
2019-04-26T07:11:23.976Z,11.30
2019-04-26T07:14:01.247Z,11.30
2019-04-26T07:16:53.650Z,11.40
2019-04-26T07:19:51.822Z,11.50
2019-04-26T07:22:35.409Z,11.70
2019-04-26T07:25:40.109Z,11.90
2019-04-26T07:28:47.410Z,12.00
2019-04-26T07:31:39.908Z,12.00
2019-04-26T07:34:33.807Z,12.30
2019-04-26T07:37:33.831Z,12.20
2019-04-26T07:40:27.861Z,12.40
2019-04-26T07:43:15.696Z,12.50
2019-04-26T07:46:09.171Z,12.40
2019-04-26T07:48:52.583Z,12.50
2019-04-26T07:51:56.984Z,12.70
2019-04-26T07:54:46.292Z,12.70
2019-04-26T08:37:58.353Z,12.70
2019-04-26T08:40:30.940Z,13.20
2019-04-26T08:43:18.205Z,13.20
2019-04-26T08:46:12.961Z,13.20
2019-04-26T08:49:03.704Z,13.30
2019-04-26T08:51:43.013Z,13.10
2019-04-26T08:54:13.979Z,13.20
2019-04-26T08:56:48.143Z,13.30
2019-04-26T08:59:30.831Z,13.60
2019-04-26T09:02:17.236Z,13.60
2019-04-26T09:05:01.035Z,13.70
2019-04-26T09:07:36.399Z,13.70
2019-04-26T09:10:12.956Z,13.80
2019-04-26T09:12:45.083Z,13.90
2019-04-26T09:15:16.407Z,13.50
2019-04-26T09:17:46.865Z,13.40
2019-04-26T09:20:28.192Z,13.30
2019-04-26T09:22:48.819Z,13.20
2019-04-26T09:25:24.407Z,13.10
2019-04-26T09:28:10.798Z,12.90
2019-04-26T09:30:42.302Z,12.80
2019-04-26T09:33:12.788Z,12.70
2019-04-26T09:35:41.359Z,12.70
2019-04-26T09:38:09.778Z,12.60
2019-04-26T09:40:38.435Z,12.30
2019-04-26T09:43:10.561Z,12.10
2019-04-26T09:45:40.331Z,12.10
2019-04-26T09:48:13.119Z,12.10
2019-04-26T09:50:49.198Z,12.10
2019-04-26T09:53:18.256Z,11.90
2019-04-26T09:55:46.672Z,11.80
2019-04-26T09:58:15.147Z,11.80
2019-04-26T10:00:47.987Z,11.80
2019-04-26T10:03:14.092Z,11.70
2019-04-26T10:05:42.576Z,11.50
2019-04-26T10:08:13.150Z,11.40
2019-04-26T10:10:41.283Z,11.40
2019-04-26T10:13:11.308Z,11.30
2019-04-26T10:15:58.110Z,11.30
2019-04-26T10:18:26.256Z,11.40
2019-04-26T10:20:54.751Z,11.50
2019-04-26T10:23:23.160Z,11.30
2019-04-26T10:25:53.445Z,11.10
2019-04-26T10:28:21.844Z,11.10
2019-04-26T10:30:50.629Z,11.10
2019-04-26T10:33:19.026Z,11.20
2019-04-26T10:35:47.444Z,11.10
2019-04-26T10:38:19.405Z,11.10
2019-04-26T10:40:46.035Z,11.10
2019-04-26T10:43:14.753Z,10.90
2019-04-26T10:45:45.987Z,11.00
2019-04-26T10:48:13.948Z,11.00
2019-04-26T10:50:43.812Z,11.10
2019-04-26T10:53:30.268Z,11.10
2019-04-26T10:56:03.623Z,11.10
2019-04-26T10:58:36.342Z,10.90
2019-04-26T11:01:08.531Z,10.80
2019-04-26T11:03:36.936Z,10.50
2019-04-26T11:06:05.345Z,10.50
2019-04-26T11:08:33.751Z,10.50
2019-04-26T11:11:02.171Z,10.30
2019-04-26T11:13:30.567Z,10.20
2019-04-26T11:16:02.626Z,10.10
2019-04-26T11:18:29.111Z,10.00
2019-04-26T11:20:57.530Z,10.00
2019-04-26T11:23:25.947Z,10.10
2019-04-26T11:25:54.352Z,10.10
2019-04-26T11:28:22.989Z,10.10
2019-04-26T11:30:52.077Z,10.10
2019-04-26T11:33:21.678Z,10.10
2019-04-26T11:35:50.084Z,10.00
2019-04-26T11:38:26.995Z,9.90
2019-04-26T11:41:06.352Z,9.90
2019-04-26T11:43:48.979Z,9.80
2019-04-26T11:46:16.963Z,9.80
2019-04-26T11:48:58.595Z,9.70
2019-04-26T11:51:17.897Z,9.70
2019-04-26T11:53:46.343Z,9.60
2019-04-26T11:56:14.750Z,9.70
2019-04-26T11:58:43.164Z,9.60
2019-04-26T12:01:13.211Z,9.40
2019-04-26T12:03:43.626Z,9.10
2019-04-26T12:06:16.514Z,9.00
2019-04-26T12:08:49.369Z,9.00
2019-04-26T12:11:19.171Z,8.90
2019-04-26T12:13:47.933Z,8.70
2019-04-26T12:16:20.533Z,8.40
2019-04-26T12:18:49.152Z,8.40
2019-04-26T12:21:17.558Z,8.30
2019-04-26T12:23:45.951Z,8.40
2019-04-26T12:26:17.340Z,8.40
2019-04-26T12:28:44.479Z,8.40
2019-04-26T12:31:15.122Z,8.40
2019-04-26T12:33:43.701Z,8.40
2019-04-26T12:36:14.315Z,8.40
2019-04-26T12:38:42.927Z,8.20
2019-04-26T12:41:11.621Z,8.10
2019-04-26T12:43:40.124Z,8.20
2019-04-26T12:46:10.179Z,8.10
2019-04-26T12:48:38.576Z,8.10
2019-04-26T12:51:08.272Z,8.10
2019-04-26T12:53:37.114Z,8.30
2019-04-26T12:56:05.521Z,8.40
2019-04-26T12:58:33.999Z,8.30
2019-04-26T13:01:02.404Z,8.30
2019-04-26T13:03:30.811Z,8.20
2019-04-26T13:05:59.259Z,8.30
2019-04-26T13:08:27.697Z,8.40
2019-04-26T13:10:57.744Z,8.40
2019-04-26T13:13:33.763Z,8.30
2019-04-26T13:16:12.921Z,8.20
2019-04-26T13:18:45.137Z,8.10
2019-04-26T13:21:11.519Z,8.10
2019-04-26T13:23:39.924Z,8.10
2019-04-26T13:26:08.324Z,7.90
2019-04-26T13:28:36.736Z,7.80
2019-04-26T13:31:05.205Z,7.70
2019-04-26T13:33:33.611Z,7.60
2019-04-26T13:36:03.110Z,7.60
2019-04-26T13:38:31.780Z,7.60
2019-04-26T13:41:04.700Z,7.50
2019-04-26T13:43:30.381Z,7.50
2019-04-26T13:46:09.235Z,7.50
2019-04-26T13:48:59.380Z,7.50
2019-04-26T13:51:29.500Z,7.50
2019-04-26T13:53:57.908Z,7.50
2019-04-26T13:56:26.315Z,7.50
2019-04-26T13:58:58.325Z,7.60
2019-04-26T14:01:24.859Z,7.60
2019-04-26T14:03:53.260Z,7.80
2019-04-26T14:06:21.675Z,7.90
2019-04-26T14:08:50.085Z,7.90
2019-04-26T14:11:20.513Z,7.90
2019-04-26T14:13:48.620Z,7.80
2019-04-26T14:16:20.802Z,7.70
2019-04-26T14:18:47.219Z,7.70
2019-04-26T14:21:15.704Z,7.50
2019-04-26T14:23:49.376Z,7.40
2019-04-26T14:26:17.516Z,7.30
2019-04-26T14:28:45.921Z,7.30
2019-04-26T14:31:16.496Z,7.30
2019-04-26T14:33:47.802Z,7.40
2019-04-26T14:36:18.092Z,7.50
2019-04-26T14:38:46.488Z,7.80
2019-04-26T14:41:21.881Z,7.90
2019-04-26T14:43:45.707Z,8.10
2019-04-26T14:46:17.973Z,8.10
2019-04-26T14:49:00.609Z,8.00
2019-04-26T14:51:18.284Z,7.90
2019-04-26T14:53:46.760Z,8.00
2019-04-26T14:56:15.163Z,8.00
2019-04-26T14:58:43.572Z,7.80
2019-04-26T15:01:13.623Z,7.80
2019-04-26T15:03:43.671Z,8.00
2019-04-26T15:06:16.721Z,8.00
2019-04-26T15:08:45.250Z,8.20
2019-04-26T15:11:14.319Z,8.00
2019-04-26T15:13:43.776Z,8.00
2019-04-26T15:16:14.219Z,8.00
2019-04-26T15:18:42.751Z,8.00
2019-04-26T15:21:12.829Z,7.90
2019-04-26T15:23:41.490Z,7.90
2019-04-26T15:26:09.890Z,7.60
2019-04-26T15:28:38.366Z,7.60
2019-04-26T15:31:06.769Z,7.70
2019-04-26T15:33:36.061Z,7.80
2019-04-26T15:36:06.519Z,7.80
2019-04-26T15:38:41.324Z,7.80
2019-04-26T15:41:11.574Z,7.80
2019-04-26T15:43:46.716Z,7.60
2019-04-26T15:46:22.569Z,7.50
2019-04-26T15:48:54.523Z,7.40
2019-04-26T15:51:27.170Z,7.30
2019-04-26T15:53:54.579Z,7.30
2019-04-26T15:56:22.975Z,7.10
2019-04-26T15:58:52.313Z,7.20
2019-04-26T16:01:20.768Z,7.20
2019-04-26T16:03:49.195Z,7.40
2019-04-26T16:06:17.591Z,7.50
2019-04-26T16:08:45.998Z,7.60
2019-04-26T16:11:14.540Z,7.80
2019-04-26T16:13:45.227Z,7.90
2019-04-26T16:16:13.143Z,7.90
2019-04-26T16:18:43.002Z,8.00
2019-04-26T16:21:17.667Z,8.10
2019-04-26T16:23:50.837Z,8.20
2019-04-26T16:26:14.366Z,8.20
2019-04-26T16:28:59.848Z,8.30
2019-04-26T16:31:29.875Z,8.30
2019-04-26T16:34:04.119Z,8.30
2019-04-26T16:36:30.131Z,8.40
2019-04-26T16:38:58.547Z,8.40
2019-04-26T16:41:27.617Z,8.40
2019-04-26T16:43:57.134Z,8.50
2019-04-26T16:46:25.599Z,8.40
2019-04-26T16:49:01.382Z,8.60
2019-04-26T16:51:24.132Z,8.80
2019-04-26T16:54:06.143Z,9.20
2019-04-26T16:56:26.490Z,9.50
2019-04-26T16:58:54.743Z,9.70
2019-04-26T17:01:23.534Z,10.10
2019-04-26T17:03:53.484Z,10.20
2019-04-26T17:06:23.250Z,10.30
2019-04-26T17:09:45.791Z,10.30
2019-04-26T17:11:22.955Z,10.30
2019-04-26T17:13:56.134Z,11.50
2019-04-26T17:16:22.473Z,11.80
2019-04-26T17:18:55.538Z,11.50
2019-04-26T17:21:25.569Z,11.00
2019-04-26T17:23:55.392Z,10.40
2019-04-26T17:26:29.201Z,10.00
2019-04-26T17:28:58.520Z,9.70
2019-04-26T17:31:27.293Z,9.60
2019-04-26T17:33:55.771Z,9.70
2019-04-26T17:36:24.168Z,9.50
2019-04-26T17:38:52.719Z,9.20
2019-04-26T17:41:21.195Z,8.90
2019-04-26T17:43:53.260Z,8.70
2019-04-26T17:46:21.455Z,8.50
2019-04-26T17:48:50.845Z,8.30
2019-04-26T17:51:22.963Z,8.20
2019-04-26T17:53:58.796Z,8.20
2019-04-26T17:56:21.507Z,8.10
2019-04-26T17:58:54.306Z,8.00
2019-04-26T18:01:39.891Z,7.90
2019-04-26T18:03:54.347Z,7.90
2019-04-26T18:06:29.543Z,7.90
2019-04-26T18:08:52.817Z,7.80
2019-04-26T18:11:24.805Z,7.80
2019-04-26T18:13:52.218Z,7.80
2019-04-26T18:16:22.012Z,7.80
2019-04-26T18:18:58.381Z,7.80
2019-04-26T18:21:28.427Z,7.80
2019-04-26T18:23:57.231Z,7.90
2019-04-26T18:26:25.816Z,7.90
2019-04-26T18:28:55.184Z,7.90
2019-04-26T18:31:28.680Z,7.90
2019-04-26T18:33:54.829Z,7.90
2019-04-26T18:36:27.750Z,7.90
2019-04-26T18:38:54.587Z,7.90
2019-04-26T18:41:28.626Z,7.80
2019-04-26T18:43:59.641Z,7.80
2019-04-26T18:46:25.431Z,7.80
2019-04-26T18:48:53.835Z,7.70
2019-04-26T18:51:23.703Z,7.70
2019-04-26T18:54:14.494Z,7.70
2019-04-26T18:56:41.972Z,7.70
2019-04-26T18:59:11.611Z,7.70
2019-04-26T19:01:42.025Z,7.60
2019-04-26T19:04:14.934Z,7.60
2019-04-26T19:06:42.377Z,7.60
2019-04-26T19:09:13.504Z,7.70
2019-04-26T19:11:48.346Z,7.70
2019-04-26T19:14:31.669Z,7.80
2019-04-26T19:17:02.188Z,7.80
2019-04-26T19:19:48.548Z,7.90
2019-04-26T19:22:17.172Z,7.90
2019-04-26T19:24:49.419Z,7.90
2019-04-26T19:27:22.309Z,7.90
2019-04-26T19:29:47.472Z,8.00
2019-04-26T19:32:15.872Z,8.00
2019-04-26T19:34:44.286Z,8.00
2019-04-26T19:37:12.687Z,8.00
2019-04-26T19:39:42.735Z,8.00
2019-04-26T19:42:11.768Z,8.00
2019-04-26T19:44:42.018Z,8.00
2019-04-26T19:47:28.468Z,8.00
2019-04-26T19:50:15.075Z,8.00
2019-04-26T19:52:45.222Z,8.00
2019-04-26T19:55:18.119Z,7.90
2019-04-26T19:58:03.157Z,7.80
2019-04-26T20:00:32.281Z,7.70
2019-04-26T20:03:01.649Z,7.60
2019-04-26T20:05:31.914Z,7.50
2019-04-26T20:08:04.592Z,7.60
2019-04-26T20:10:34.562Z,7.50
2019-04-26T20:13:02.436Z,7.50
2019-04-26T20:15:31.796Z,7.60
2019-04-26T20:18:03.692Z,7.60
2019-04-26T20:20:34.593Z,7.70
2019-04-26T20:23:05.877Z,7.80
2019-04-26T20:25:31.177Z,7.70
2019-04-26T20:28:00.826Z,7.70
2019-04-26T20:30:31.688Z,7.70
2019-04-26T20:33:01.671Z,7.70
2019-04-26T20:35:31.780Z,7.60
2019-04-26T20:38:03.364Z,7.60
2019-04-26T20:40:30.415Z,7.60
2019-04-26T20:43:05.625Z,7.70
2019-04-26T20:45:38.850Z,7.60
2019-04-26T20:47:59.099Z,7.60
2019-04-26T20:50:41.329Z,7.50
2019-04-26T20:53:11.874Z,7.50
2019-04-26T20:55:39.914Z,7.40
2019-04-26T20:58:08.848Z,7.50
2019-04-26T21:00:37.845Z,7.50
2019-04-26T21:03:06.442Z,7.60
2019-04-26T21:05:45.684Z,7.50
2019-04-26T21:08:05.036Z,7.50
2019-04-26T21:10:35.857Z,7.60
2019-04-26T21:13:03.699Z,7.70
2019-04-26T21:15:35.741Z,7.80
2019-04-26T21:18:23.034Z,7.80
2019-04-26T21:20:52.153Z,7.80
2019-04-26T21:23:22.287Z,7.80
2019-04-26T21:25:52.535Z,7.80
2019-04-26T21:28:28.151Z,7.80
2019-04-26T21:31:07.561Z,7.80
2019-04-26T21:33:39.045Z,7.80
2019-04-26T21:36:23.952Z,7.80
2019-04-26T21:38:59.412Z,7.70
2019-04-26T21:41:28.742Z,7.70
2019-04-26T21:43:57.172Z,7.80
2019-04-26T21:46:25.624Z,7.80
2019-04-26T21:48:54.039Z,7.80
2019-04-26T21:51:22.946Z,7.80
2019-04-26T21:53:53.004Z,7.90
2019-04-26T21:56:28.435Z,7.90
2019-04-26T21:58:56.844Z,8.00
2019-04-26T22:01:25.555Z,8.00
2019-04-26T22:03:58.154Z,8.00
2019-04-26T22:06:27.511Z,8.10
2019-04-26T22:08:59.289Z,8.00
2019-04-26T22:11:26.100Z,8.00
2019-04-26T22:14:05.379Z,8.00
2019-04-26T22:16:37.918Z,8.00
2019-04-26T22:19:07.619Z,8.10
2019-04-26T22:21:43.676Z,8.20
2019-04-26T22:24:16.153Z,8.20
2019-04-26T22:26:48.042Z,8.20
2019-04-26T22:29:16.820Z,8.20
2019-04-26T22:31:44.968Z,8.10
2019-04-26T22:34:13.369Z,8.10
2019-04-26T22:36:43.696Z,8.10
2019-04-26T22:39:18.039Z,8.10
2019-04-26T22:41:46.517Z,8.10
2019-04-26T22:44:31.354Z,8.10
2019-04-26T22:46:58.929Z,8.00
2019-04-26T22:49:27.369Z,8.00
2019-04-26T22:51:55.787Z,8.00
2019-04-26T22:54:25.018Z,8.00
2019-04-26T22:56:53.827Z,8.00
2019-04-26T22:59:22.967Z,8.10
2019-04-26T23:01:53.416Z,8.10
2019-04-26T23:04:23.657Z,8.10
2019-04-26T23:06:51.837Z,8.00
2019-04-26T23:09:20.809Z,8.00
2019-04-26T23:11:51.095Z,8.10
2019-04-26T23:14:21.153Z,8.10
2019-04-26T23:17:08.458Z,8.20
2019-04-26T23:19:44.334Z,8.20
2019-04-26T23:22:12.896Z,8.20
2019-04-26T23:24:42.800Z,8.30
2019-04-26T23:27:14.902Z,8.30
2019-04-26T23:29:41.803Z,8.30
2019-04-26T23:32:12.138Z,8.40
2019-04-26T23:34:40.339Z,8.30
2019-04-26T23:37:08.807Z,8.40
2019-04-26T23:39:37.208Z,8.40
2019-04-26T23:42:05.679Z,8.40
2019-04-26T23:44:36.932Z,8.40
2019-04-26T23:47:18.497Z,8.40
2019-04-26T23:49:34.483Z,8.40
2019-04-26T23:52:03.717Z,8.40
2019-04-26T23:54:35.890Z,8.40
2019-04-26T23:57:02.909Z,8.40
2019-04-26T23:59:31.487Z,8.40
